Olaton, KY (42361)

6:13 PM CST on November 23, 2014 (GMT -0600)
Redhill-Greenbriar | Change Station
CLOSE
Current Station
Personal Weather Station
Location: Utica, KY
Elevation: 495 ft
Nearby Weather Stations
Active Advisory: Wind Advisory

Elev 495 ft 37.58 °N, 87.04 °W | Updated 24 seconds ago

Overcast
Overcast
58.1 °F
Feels Like 58.1 °F
N
4.5
Wind Variable Wind from SSE
Gusts 4.9 mph

Today
High -- | Low -- °F
--% Chance of Precip.
Yesterday
High -- | Low -- °F
Precip. -- in
6:34 AM 4:31 PM
Waxing Crescent, 3% visible
Pressure 29.32 in
Visibility 10.0 miles
Clouds Overcast 1300 ft
Dew Point 57 °F
Humidity 96%
Rainfall 0.60 in
Snow Depth Not available.
UV 0.0 out of 12
Pollen .10 out of 12
Air Quality Not available.
Flu Activity Not available.
METAR KOWB 232356Z 17014G21KT 10SM -RA OVC013 15/13 A2932 RMK AO2 56050 60060 T01500133 10150 20133 P0002 SLP929

More Conditions Fewer Conditions

Pressure 29.32 in
Visibility 10.0 miles
Clouds Overcast 1300 ft
Dew Point 57 °F
Humidity 96%
Rainfall 0.60 in
Snow Depth Not available.
UV 0.0 out of 12
Pollen .10 out of 12
Air Quality Not available.
Flu Activity Not available.
METAR KOWB 232356Z 17014G21KT 10SM -RA OVC013 15/13 A2932 RMK AO2 56050 60060 T01500133 10150 20133 P0002 SLP929

More Conditions Fewer Conditions

10-Day Weather Forecast

Almanac

Astronomy

Nov. 23, 2014 Rise Set
Actual Time
Civil Twilight
Nautical Twilight
Astronomical Twilight
Moon
Length of Visible Light
Length of Day
Tomorrow will be .
, % of the Moon is Illuminated

Today's Extremes

State Highs State Lows

Community

WunderPhotos

Upload Photos

1,773,216 photos uploaded!

WunderBlogs® & News

Nearby

Air Quality

  Air Quality AQ Index Pollutant
Not available.

Snow Depth

Station Depth Elevation

Earthquake Activity

City Distance Mag. Time & Date
Minimum magnitude displayed is 2.5.

Coastal Water Temperatures

Place Temperature

Nearby Weather Stations